sensor_id;sensor_type;location;lat;lon;timestamp;temperature;humidity
17423;DHT22;8829;47.932;7.810;2023-11-19T00:02:25;11.30;99.90
17423;DHT22;8829;47.932;7.810;2023-11-19T00:04:53;11.30;99.90
17423;DHT22;8829;47.932;7.810;2023-11-19T00:07:20;11.40;99.90
17423;DHT22;8829;47.932;7.810;2023-11-19T00:09:47;11.40;99.90
17423;DHT22;8829;47.932;7.810;2023-11-19T00:12:13;11.40;99.90
17423;DHT22;8829;47.932;7.810;2023-11-19T00:14:40;11.40;99.90
17423;DHT22;8829;47.932;7.810;2023-11-19T00:17:07;11.40;99.90
17423;DHT22;8829;47.932;7.810;2023-11-19T00:19:34;11.40;99.90
17423;DHT22;8829;47.932;7.810;2023-11-19T00:22:02;11.40;99.90
17423;DHT22;8829;47.932;7.810;2023-11-19T00:24:29;11.50;99.90
17423;DHT22;8829;47.932;7.810;2023-11-19T00:26:57;11.40;99.90
17423;DHT22;8829;47.932;7.810;2023-11-19T00:29:24;11.40;99.90
17423;DHT22;8829;47.932;7.810;2023-11-19T00:31:50;11.50;99.90
17423;DHT22;8829;47.932;7.810;2023-11-19T00:34:17;11.40;99.90
17423;DHT22;8829;47.932;7.810;2023-11-19T00:36:47;11.50;99.90
17423;DHT22;8829;47.932;7.810;2023-11-19T00:39:15;11.50;99.90
17423;DHT22;8829;47.932;7.810;2023-11-19T00:41:43;11.50;99.90
17423;DHT22;8829;47.932;7.810;2023-11-19T00:44:11;11.50;99.90
17423;DHT22;8829;47.932;7.810;2023-11-19T00:46:38;11.50;99.90
17423;DHT22;8829;47.932;7.810;2023-11-19T00:49:05;11.50;99.90
17423;DHT22;8829;47.932;7.810;2023-11-19T00:51:31;11.50;99.90
17423;DHT22;8829;47.932;7.810;2023-11-19T00:53:58;11.50;99.90
17423;DHT22;8829;47.932;7.810;2023-11-19T00:56:27;11.50;99.90
17423;DHT22;8829;47.932;7.810;2023-11-19T00:58:54;11.50;99.90
17423;DHT22;8829;47.932;7.810;2023-11-19T01:01:21;11.50;99.90
17423;DHT22;8829;47.932;7.810;2023-11-19T01:03:48;11.50;99.90
17423;DHT22;8829;47.932;7.810;2023-11-19T01:06:15;11.50;99.90
17423;DHT22;8829;47.932;7.810;2023-11-19T01:08:42;11.50;99.90
17423;DHT22;8829;47.932;7.810;2023-11-19T01:11:19;11.50;99.90
17423;DHT22;8829;47.932;7.810;2023-11-19T01:13:48;11.60;99.90
17423;DHT22;8829;47.932;7.810;2023-11-19T01:16:15;11.60;99.90
17423;DHT22;8829;47.932;7.810;2023-11-19T01:18:42;11.60;99.90
17423;DHT22;8829;47.932;7.810;2023-11-19T01:21:08;11.70;99.90
17423;DHT22;8829;47.932;7.810;2023-11-19T01:23:35;11.70;99.90
17423;DHT22;8829;47.932;7.810;2023-11-19T01:26:02;11.70;99.90
17423;DHT22;8829;47.932;7.810;2023-11-19T01:28:30;11.70;99.90
17423;DHT22;8829;47.932;7.810;2023-11-19T01:30:58;11.70;99.90
17423;DHT22;8829;47.932;7.810;2023-11-19T01:33:25;11.70;99.90
17423;DHT22;8829;47.932;7.810;2023-11-19T01:35:53;11.80;99.90
17423;DHT22;8829;47.932;7.810;2023-11-19T01:38:20;11.80;99.90
17423;DHT22;8829;47.932;7.810;2023-11-19T01:40:46;11.90;99.90
17423;DHT22;8829;47.932;7.810;2023-11-19T01:43:32;11.90;99.90
17423;DHT22;8829;47.932;7.810;2023-11-19T01:46:01;11.90;99.90
17423;DHT22;8829;47.932;7.810;2023-11-19T01:48:28;12.00;99.90
17423;DHT22;8829;47.932;7.810;2023-11-19T01:50:55;12.00;99.90
17423;DHT22;8829;47.932;7.810;2023-11-19T01:53:23;12.00;99.90
17423;DHT22;8829;47.932;7.810;2023-11-19T01:55:50;12.10;99.90
17423;DHT22;8829;47.932;7.810;2023-11-19T01:58:18;12.00;99.90
17423;DHT22;8829;47.932;7.810;2023-11-19T02:00:45;12.00;99.90
17423;DHT22;8829;47.932;7.810;2023-11-19T02:03:14;12.00;99.90
17423;DHT22;8829;47.932;7.810;2023-11-19T02:05:41;11.90;99.90
17423;DHT22;8829;47.932;7.810;2023-11-19T02:08:09;11.90;99.90
17423;DHT22;8829;47.932;7.810;2023-11-19T02:10:35;11.90;99.90
17423;DHT22;8829;47.932;7.810;2023-11-19T02:13:02;11.70;99.90
17423;DHT22;8829;47.932;7.810;2023-11-19T02:15:32;11.50;99.90
17423;DHT22;8829;47.932;7.810;2023-11-19T02:18:21;11.30;99.90
17423;DHT22;8829;47.932;7.810;2023-11-19T02:20:49;11.20;99.90
17423;DHT22;8829;47.932;7.810;2023-11-19T02:23:16;11.10;99.90
17423;DHT22;8829;47.932;7.810;2023-11-19T02:25:47;11.00;99.90
17423;DHT22;8829;47.932;7.810;2023-11-19T02:28:16;10.90;99.90
17423;DHT22;8829;47.932;7.810;2023-11-19T02:30:43;10.90;99.90
17423;DHT22;8829;47.932;7.810;2023-11-19T02:33:10;10.70;99.90
17423;DHT22;8829;47.932;7.810;2023-11-19T02:35:38;10.60;99.90
17423;DHT22;8829;47.932;7.810;2023-11-19T02:38:06;10.50;99.90
17423;DHT22;8829;47.932;7.810;2023-11-19T02:40:33;10.50;99.90
17423;DHT22;8829;47.932;7.810;2023-11-19T02:43:00;10.40;99.90
17423;DHT22;8829;47.932;7.810;2023-11-19T02:45:31;10.40;99.90
17423;DHT22;8829;47.932;7.810;2023-11-19T02:47:58;10.40;99.90
17423;DHT22;8829;47.932;7.810;2023-11-19T02:50:27;10.30;99.90
17423;DHT22;8829;47.932;7.810;2023-11-19T02:52:54;10.30;99.90
17423;DHT22;8829;47.932;7.810;2023-11-19T02:55:23;10.20;99.90
17423;DHT22;8829;47.932;7.810;2023-11-19T02:57:50;10.30;99.90
17423;DHT22;8829;47.932;7.810;2023-11-19T03:00:19;10.30;99.90
17423;DHT22;8829;47.932;7.810;2023-11-19T03:02:51;10.40;99.90
17423;DHT22;8829;47.932;7.810;2023-11-19T03:05:25;10.50;99.90
17423;DHT22;8829;47.932;7.810;2023-11-19T03:07:54;10.50;99.90
17423;DHT22;8829;47.932;7.810;2023-11-19T03:10:22;10.60;99.90
17423;DHT22;8829;47.932;7.810;2023-11-19T03:12:49;10.60;99.90
17423;DHT22;8829;47.932;7.810;2023-11-19T03:15:16;10.60;99.90
17423;DHT22;8829;47.932;7.810;2023-11-19T03:17:43;10.60;99.90
17423;DHT22;8829;47.932;7.810;2023-11-19T03:20:11;10.50;99.90
17423;DHT22;8829;47.932;7.810;2023-11-19T03:22:41;10.60;99.90
17423;DHT22;8829;47.932;7.810;2023-11-19T03:25:08;10.60;99.90
17423;DHT22;8829;47.932;7.810;2023-11-19T03:27:35;10.60;99.90
17423;DHT22;8829;47.932;7.810;2023-11-19T03:30:03;10.60;99.90
17423;DHT22;8829;47.932;7.810;2023-11-19T03:32:30;10.60;99.90
17423;DHT22;8829;47.932;7.810;2023-11-19T03:34:58;10.60;99.90
17423;DHT22;8829;47.932;7.810;2023-11-19T03:37:26;10.60;99.90
17423;DHT22;8829;47.932;7.810;2023-11-19T03:39:53;10.70;99.90
17423;DHT22;8829;47.932;7.810;2023-11-19T03:42:20;10.70;99.90
17423;DHT22;8829;47.932;7.810;2023-11-19T03:44:47;10.70;99.90
17423;DHT22;8829;47.932;7.810;2023-11-19T03:47:15;10.80;99.90
17423;DHT22;8829;47.932;7.810;2023-11-19T03:49:42;10.80;99.90
17423;DHT22;8829;47.932;7.810;2023-11-19T03:52:09;10.80;99.90
17423;DHT22;8829;47.932;7.810;2023-11-19T03:54:37;10.80;99.90
17423;DHT22;8829;47.932;7.810;2023-11-19T03:57:04;10.80;99.90
17423;DHT22;8829;47.932;7.810;2023-11-19T03:59:31;10.80;99.90
17423;DHT22;8829;47.932;7.810;2023-11-19T04:01:58;10.90;99.90
17423;DHT22;8829;47.932;7.810;2023-11-19T04:04:26;10.90;99.90
17423;DHT22;8829;47.932;7.810;2023-11-19T04:06:53;10.90;99.90
17423;DHT22;8829;47.932;7.810;2023-11-19T04:09:20;10.90;99.90
17423;DHT22;8829;47.932;7.810;2023-11-19T04:11:48;11.00;99.90
17423;DHT22;8829;47.932;7.810;2023-11-19T04:14:14;11.00;99.90
17423;DHT22;8829;47.932;7.810;2023-11-19T04:16:43;11.00;99.90
17423;DHT22;8829;47.932;7.810;2023-11-19T04:19:10;11.10;99.90
17423;DHT22;8829;47.932;7.810;2023-11-19T04:21:39;11.00;99.90
17423;DHT22;8829;47.932;7.810;2023-11-19T04:24:07;11.10;99.90
17423;DHT22;8829;47.932;7.810;2023-11-19T04:26:34;11.10;99.90
17423;DHT22;8829;47.932;7.810;2023-11-19T04:29:03;11.10;99.90
17423;DHT22;8829;47.932;7.810;2023-11-19T04:31:30;11.10;99.90
17423;DHT22;8829;47.932;7.810;2023-11-19T04:33:58;11.20;99.90
17423;DHT22;8829;47.932;7.810;2023-11-19T04:36:25;11.20;99.90
17423;DHT22;8829;47.932;7.810;2023-11-19T04:38:52;11.20;99.90
17423;DHT22;8829;47.932;7.810;2023-11-19T04:41:19;11.30;99.90
17423;DHT22;8829;47.932;7.810;2023-11-19T04:43:46;11.30;99.90
17423;DHT22;8829;47.932;7.810;2023-11-19T04:46:14;11.30;99.90
17423;DHT22;8829;47.932;7.810;2023-11-19T04:48:41;11.30;99.90
17423;DHT22;8829;47.932;7.810;2023-11-19T04:51:08;11.30;99.90
17423;DHT22;8829;47.932;7.810;2023-11-19T04:53:35;11.30;99.90
17423;DHT22;8829;47.932;7.810;2023-11-19T04:56:07;11.30;99.90
17423;DHT22;8829;47.932;7.810;2023-11-19T04:58:34;11.30;99.90
17423;DHT22;8829;47.932;7.810;2023-11-19T05:01:01;11.30;99.90
17423;DHT22;8829;47.932;7.810;2023-11-19T05:03:30;11.30;99.90
17423;DHT22;8829;47.932;7.810;2023-11-19T05:05:57;11.30;99.90
17423;DHT22;8829;47.932;7.810;2023-11-19T05:08:24;11.30;99.90
17423;DHT22;8829;47.932;7.810;2023-11-19T05:10:51;11.40;99.90
17423;DHT22;8829;47.932;7.810;2023-11-19T05:13:18;11.30;99.90
17423;DHT22;8829;47.932;7.810;2023-11-19T05:15:45;11.30;99.90
17423;DHT22;8829;47.932;7.810;2023-11-19T05:18:12;11.40;99.90
17423;DHT22;8829;47.932;7.810;2023-11-19T05:20:40;11.40;99.90
17423;DHT22;8829;47.932;7.810;2023-11-19T05:23:07;11.50;99.90
17423;DHT22;8829;47.932;7.810;2023-11-19T05:25:33;11.50;99.90
17423;DHT22;8829;47.932;7.810;2023-11-19T05:28:00;11.50;99.90
17423;DHT22;8829;47.932;7.810;2023-11-19T05:30:27;11.50;99.90
17423;DHT22;8829;47.932;7.810;2023-11-19T05:32:54;11.50;99.90
17423;DHT22;8829;47.932;7.810;2023-11-19T05:35:21;11.50;99.90
17423;DHT22;8829;47.932;7.810;2023-11-19T05:37:49;11.50;99.90
17423;DHT22;8829;47.932;7.810;2023-11-19T05:40:15;11.50;99.90
17423;DHT22;8829;47.932;7.810;2023-11-19T05:42:43;11.50;99.90
17423;DHT22;8829;47.932;7.810;2023-11-19T05:45:12;11.50;99.90
17423;DHT22;8829;47.932;7.810;2023-11-19T05:47:39;11.50;99.90
17423;DHT22;8829;47.932;7.810;2023-11-19T05:50:07;11.50;99.90
17423;DHT22;8829;47.932;7.810;2023-11-19T05:52:34;11.60;99.90
17423;DHT22;8829;47.932;7.810;2023-11-19T05:55:02;11.60;99.90
17423;DHT22;8829;47.932;7.810;2023-11-19T05:57:34;11.70;99.90
17423;DHT22;8829;47.932;7.810;2023-11-19T06:00:01;11.70;99.90
17423;DHT22;8829;47.932;7.810;2023-11-19T06:02:29;11.70;99.90
17423;DHT22;8829;47.932;7.810;2023-11-19T06:04:55;11.70;99.90
17423;DHT22;8829;47.932;7.810;2023-11-19T06:07:22;11.70;99.90
17423;DHT22;8829;47.932;7.810;2023-11-19T06:09:49;11.80;99.90
17423;DHT22;8829;47.932;7.810;2023-11-19T06:12:17;11.80;99.90
17423;DHT22;8829;47.932;7.810;2023-11-19T06:14:43;11.80;99.90
17423;DHT22;8829;47.932;7.810;2023-11-19T06:17:10;11.80;99.90
17423;DHT22;8829;47.932;7.810;2023-11-19T06:19:37;11.80;99.90
17423;DHT22;8829;47.932;7.810;2023-11-19T06:22:04;11.80;99.90
17423;DHT22;8829;47.932;7.810;2023-11-19T06:24:32;11.90;99.90
17423;DHT22;8829;47.932;7.810;2023-11-19T06:26:58;11.80;99.90
17423;DHT22;8829;47.932;7.810;2023-11-19T06:29:27;11.80;99.90
17423;DHT22;8829;47.932;7.810;2023-11-19T06:31:53;11.80;99.90
17423;DHT22;8829;47.932;7.810;2023-11-19T06:34:20;11.90;99.90
17423;DHT22;8829;47.932;7.810;2023-11-19T06:36:47;11.90;99.90
17423;DHT22;8829;47.932;7.810;2023-11-19T06:39:14;11.90;99.90
17423;DHT22;8829;47.932;7.810;2023-11-19T06:41:44;11.90;99.90
17423;DHT22;8829;47.932;7.810;2023-11-19T06:44:11;11.90;99.90
17423;DHT22;8829;47.932;7.810;2023-11-19T06:46:39;11.90;99.90
17423;DHT22;8829;47.932;7.810;2023-11-19T06:49:06;11.90;99.90
17423;DHT22;8829;47.932;7.810;2023-11-19T06:51:33;11.90;99.90
17423;DHT22;8829;47.932;7.810;2023-11-19T06:54:00;11.90;99.90
17423;DHT22;8829;47.932;7.810;2023-11-19T06:56:27;11.90;99.90
17423;DHT22;8829;47.932;7.810;2023-11-19T06:58:53;11.90;99.90
17423;DHT22;8829;47.932;7.810;2023-11-19T07:01:19;11.90;99.90
17423;DHT22;8829;47.932;7.810;2023-11-19T07:03:48;12.00;99.90
17423;DHT22;8829;47.932;7.810;2023-11-19T07:06:15;12.00;99.90
17423;DHT22;8829;47.932;7.810;2023-11-19T07:08:42;12.00;99.90
17423;DHT22;8829;47.932;7.810;2023-11-19T07:11:10;12.10;99.90
17423;DHT22;8829;47.932;7.810;2023-11-19T07:13:37;12.10;99.90
17423;DHT22;8829;47.932;7.810;2023-11-19T07:16:04;12.10;99.90
17423;DHT22;8829;47.932;7.810;2023-11-19T07:18:31;12.10;99.90
17423;DHT22;8829;47.932;7.810;2023-11-19T07:21:02;12.10;99.90
17423;DHT22;8829;47.932;7.810;2023-11-19T07:23:29;12.10;99.90
17423;DHT22;8829;47.932;7.810;2023-11-19T07:25:56;12.20;99.90
17423;DHT22;8829;47.932;7.810;2023-11-19T07:28:23;12.20;99.90
17423;DHT22;8829;47.932;7.810;2023-11-19T07:30:50;12.20;99.90
17423;DHT22;8829;47.932;7.810;2023-11-19T07:33:17;12.20;99.90
17423;DHT22;8829;47.932;7.810;2023-11-19T07:35:43;12.20;99.90
17423;DHT22;8829;47.932;7.810;2023-11-19T07:38:11;12.20;99.90
17423;DHT22;8829;47.932;7.810;2023-11-19T07:40:38;12.30;99.90
17423;DHT22;8829;47.932;7.810;2023-11-19T07:43:05;12.30;99.90
17423;DHT22;8829;47.932;7.810;2023-11-19T07:45:33;12.30;99.90
17423;DHT22;8829;47.932;7.810;2023-11-19T07:48:00;12.40;99.90
17423;DHT22;8829;47.932;7.810;2023-11-19T07:50:27;12.40;99.90
17423;DHT22;8829;47.932;7.810;2023-11-19T07:52:57;12.40;99.90
17423;DHT22;8829;47.932;7.810;2023-11-19T07:55:25;12.50;99.90
17423;DHT22;8829;47.932;7.810;2023-11-19T07:57:52;12.50;99.90
17423;DHT22;8829;47.932;7.810;2023-11-19T08:00:19;12.50;99.90
17423;DHT22;8829;47.932;7.810;2023-11-19T08:02:46;12.50;99.90
17423;DHT22;8829;47.932;7.810;2023-11-19T08:05:13;12.50;99.90
17423;DHT22;8829;47.932;7.810;2023-11-19T08:07:39;12.50;99.90
17423;DHT22;8829;47.932;7.810;2023-11-19T08:10:07;12.50;99.90
17423;DHT22;8829;47.932;7.810;2023-11-19T08:12:36;12.50;99.90
17423;DHT22;8829;47.932;7.810;2023-11-19T08:15:04;12.50;99.90
17423;DHT22;8829;47.932;7.810;2023-11-19T08:17:31;12.50;99.90
17423;DHT22;8829;47.932;7.810;2023-11-19T08:19:57;12.50;99.90
17423;DHT22;8829;47.932;7.810;2023-11-19T08:22:25;12.50;99.90
17423;DHT22;8829;47.932;7.810;2023-11-19T08:24:52;12.50;99.90
17423;DHT22;8829;47.932;7.810;2023-11-19T08:27:19;12.50;99.90
17423;DHT22;8829;47.932;7.810;2023-11-19T08:29:53;12.50;99.90
17423;DHT22;8829;47.932;7.810;2023-11-19T08:32:21;12.60;99.90
17423;DHT22;8829;47.932;7.810;2023-11-19T08:34:47;12.60;99.90
17423;DHT22;8829;47.932;7.810;2023-11-19T08:37:14;12.60;99.90
17423;DHT22;8829;47.932;7.810;2023-11-19T08:39:43;12.60;99.90
17423;DHT22;8829;47.932;7.810;2023-11-19T08:42:10;12.50;99.90
17423;DHT22;8829;47.932;7.810;2023-11-19T08:44:36;12.60;99.90
17423;DHT22;8829;47.932;7.810;2023-11-19T08:47:05;12.60;99.90
17423;DHT22;8829;47.932;7.810;2023-11-19T08:49:31;12.60;99.90
17423;DHT22;8829;47.932;7.810;2023-11-19T08:51:58;12.60;99.90
17423;DHT22;8829;47.932;7.810;2023-11-19T08:54:25;12.70;99.90
17423;DHT22;8829;47.932;7.810;2023-11-19T08:56:52;12.70;99.90
17423;DHT22;8829;47.932;7.810;2023-11-19T08:59:18;12.70;99.90
17423;DHT22;8829;47.932;7.810;2023-11-19T09:01:45;12.70;99.90
17423;DHT22;8829;47.932;7.810;2023-11-19T09:04:13;12.80;99.90
17423;DHT22;8829;47.932;7.810;2023-11-19T09:06:41;12.80;99.90
17423;DHT22;8829;47.932;7.810;2023-11-19T09:09:09;12.80;99.90
17423;DHT22;8829;47.932;7.810;2023-11-19T09:11:36;12.80;99.90
17423;DHT22;8829;47.932;7.810;2023-11-19T09:14:03;12.80;99.90
17423;DHT22;8829;47.932;7.810;2023-11-19T09:16:31;12.90;99.90
17423;DHT22;8829;47.932;7.810;2023-11-19T09:18:58;12.90;99.90
17423;DHT22;8829;47.932;7.810;2023-11-19T09:21:27;12.90;99.90
17423;DHT22;8829;47.932;7.810;2023-11-19T09:23:54;12.90;99.90
17423;DHT22;8829;47.932;7.810;2023-11-19T09:26:21;12.90;99.90
17423;DHT22;8829;47.932;7.810;2023-11-19T09:28:48;12.90;99.90
17423;DHT22;8829;47.932;7.810;2023-11-19T09:31:15;12.90;99.90
17423;DHT22;8829;47.932;7.810;2023-11-19T09:33:42;12.80;99.90
17423;DHT22;8829;47.932;7.810;2023-11-19T09:36:09;12.80;99.90
17423;DHT22;8829;47.932;7.810;2023-11-19T09:38:37;12.80;99.90
17423;DHT22;8829;47.932;7.810;2023-11-19T09:41:05;12.80;99.90
17423;DHT22;8829;47.932;7.810;2023-11-19T09:43:34;12.80;99.90
17423;DHT22;8829;47.932;7.810;2023-11-19T09:46:04;12.70;99.90
17423;DHT22;8829;47.932;7.810;2023-11-19T09:48:33;12.80;99.90
17423;DHT22;8829;47.932;7.810;2023-11-19T09:51:00;12.80;99.90
17423;DHT22;8829;47.932;7.810;2023-11-19T09:53:27;12.80;99.90
17423;DHT22;8829;47.932;7.810;2023-11-19T09:55:56;12.80;99.90
17423;DHT22;8829;47.932;7.810;2023-11-19T09:58:22;12.80;99.90
17423;DHT22;8829;47.932;7.810;2023-11-19T10:00:50;12.90;99.90
17423;DHT22;8829;47.932;7.810;2023-11-19T10:03:18;12.80;99.90
17423;DHT22;8829;47.932;7.810;2023-11-19T10:05:45;12.80;99.90
17423;DHT22;8829;47.932;7.810;2023-11-19T10:08:12;12.90;99.90
17423;DHT22;8829;47.932;7.810;2023-11-19T10:10:39;12.90;99.90
17423;DHT22;8829;47.932;7.810;2023-11-19T10:13:07;12.90;99.90
17423;DHT22;8829;47.932;7.810;2023-11-19T10:15:36;12.90;99.90
17423;DHT22;8829;47.932;7.810;2023-11-19T10:18:03;12.90;99.90
17423;DHT22;8829;47.932;7.810;2023-11-19T10:20:35;13.10;99.90
17423;DHT22;8829;47.932;7.810;2023-11-19T10:23:02;13.20;99.90
17423;DHT22;8829;47.932;7.810;2023-11-19T10:25:29;13.30;99.90
17423;DHT22;8829;47.932;7.810;2023-11-19T10:27:57;13.20;99.90
17423;DHT22;8829;47.932;7.810;2023-11-19T10:30:26;13.20;99.90
17423;DHT22;8829;47.932;7.810;2023-11-19T10:33:06;13.40;99.90
17423;DHT22;8829;47.932;7.810;2023-11-19T10:35:33;13.40;99.90
17423;DHT22;8829;47.932;7.810;2023-11-19T10:38:01;13.40;99.90
17423;DHT22;8829;47.932;7.810;2023-11-19T10:40:40;13.40;99.90
17423;DHT22;8829;47.932;7.810;2023-11-19T10:43:07;13.50;99.90
17423;DHT22;8829;47.932;7.810;2023-11-19T10:45:35;13.50;99.90
17423;DHT22;8829;47.932;7.810;2023-11-19T10:48:03;13.50;99.90
17423;DHT22;8829;47.932;7.810;2023-11-19T10:50:32;13.50;99.90
17423;DHT22;8829;47.932;7.810;2023-11-19T10:52:59;13.50;99.90
17423;DHT22;8829;47.932;7.810;2023-11-19T10:55:27;13.50;99.90
17423;DHT22;8829;47.932;7.810;2023-11-19T10:57:58;13.50;99.90
17423;DHT22;8829;47.932;7.810;2023-11-19T11:00:26;13.50;99.90
17423;DHT22;8829;47.932;7.810;2023-11-19T11:03:00;13.40;99.90
17423;DHT22;8829;47.932;7.810;2023-11-19T11:05:27;13.50;99.90
17423;DHT22;8829;47.932;7.810;2023-11-19T11:07:55;13.50;99.90
17423;DHT22;8829;47.932;7.810;2023-11-19T11:10:26;13.60;99.90
17423;DHT22;8829;47.932;7.810;2023-11-19T11:12:53;13.60;99.90
17423;DHT22;8829;47.932;7.810;2023-11-19T11:15:26;13.70;99.90
17423;DHT22;8829;47.932;7.810;2023-11-19T11:18:00;13.70;99.90
17423;DHT22;8829;47.932;7.810;2023-11-19T11:20:28;13.80;99.90
17423;DHT22;8829;47.932;7.810;2023-11-19T11:23:27;13.80;99.90
17423;DHT22;8829;47.932;7.810;2023-11-19T11:26:05;13.80;99.90
17423;DHT22;8829;47.932;7.810;2023-11-19T11:28:41;13.80;99.90
17423;DHT22;8829;47.932;7.810;2023-11-19T11:31:23;13.90;99.90
17423;DHT22;8829;47.932;7.810;2023-11-19T11:34:15;13.80;99.90
17423;DHT22;8829;47.932;7.810;2023-11-19T11:36:53;13.80;99.90
17423;DHT22;8829;47.932;7.810;2023-11-19T11:39:22;13.70;99.90
17423;DHT22;8829;47.932;7.810;2023-11-19T11:42:32;13.70;99.90
17423;DHT22;8829;47.932;7.810;2023-11-19T11:45:00;13.70;99.90
17423;DHT22;8829;47.932;7.810;2023-11-19T11:50:28;13.70;99.90
17423;DHT22;8829;47.932;7.810;2023-11-19T11:53:16;13.70;99.90
17423;DHT22;8829;47.932;7.810;2023-11-19T11:55:56;13.60;99.90
17423;DHT22;8829;47.932;7.810;2023-11-19T11:58:30;13.60;99.90
17423;DHT22;8829;47.932;7.810;2023-11-19T12:00:58;13.60;99.90
17423;DHT22;8829;47.932;7.810;2023-11-19T12:03:28;13.50;99.90
17423;DHT22;8829;47.932;7.810;2023-11-19T12:05:56;13.50;99.90
17423;DHT22;8829;47.932;7.810;2023-11-19T12:08:28;13.60;99.90
17423;DHT22;8829;47.932;7.810;2023-11-19T12:10:57;13.50;99.90
17423;DHT22;8829;47.932;7.810;2023-11-19T12:13:53;13.60;99.90
17423;DHT22;8829;47.932;7.810;2023-11-19T12:16:25;13.60;99.90
17423;DHT22;8829;47.932;7.810;2023-11-19T12:18:53;13.70;99.90
17423;DHT22;8829;47.932;7.810;2023-11-19T12:21:30;13.70;99.90
17423;DHT22;8829;47.932;7.810;2023-11-19T12:23:59;13.60;99.90
17423;DHT22;8829;47.932;7.810;2023-11-19T12:26:39;13.60;99.90
17423;DHT22;8829;47.932;7.810;2023-11-19T12:29:08;13.70;99.90
17423;DHT22;8829;47.932;7.810;2023-11-19T12:31:34;13.70;99.90
17423;DHT22;8829;47.932;7.810;2023-11-19T12:34:08;13.80;99.90
17423;DHT22;8829;47.932;7.810;2023-11-19T12:36:38;13.80;99.90
17423;DHT22;8829;47.932;7.810;2023-11-19T12:39:06;13.80;99.90
17423;DHT22;8829;47.932;7.810;2023-11-19T12:41:49;13.80;99.90
17423;DHT22;8829;47.932;7.810;2023-11-19T12:44:17;13.90;99.90
17423;DHT22;8829;47.932;7.810;2023-11-19T12:46:44;13.90;99.90
17423;DHT22;8829;47.932;7.810;2023-11-19T12:49:11;13.90;99.90
17423;DHT22;8829;47.932;7.810;2023-11-19T12:51:38;14.00;99.90
17423;DHT22;8829;47.932;7.810;2023-11-19T12:54:05;13.90;99.90
17423;DHT22;8829;47.932;7.810;2023-11-19T12:56:31;13.90;99.90
17423;DHT22;8829;47.932;7.810;2023-11-19T12:59:10;13.90;99.90
17423;DHT22;8829;47.932;7.810;2023-11-19T13:01:38;13.90;99.90
17423;DHT22;8829;47.932;7.810;2023-11-19T13:04:16;13.90;99.90
17423;DHT22;8829;47.932;7.810;2023-11-19T13:06:45;13.90;99.90
17423;DHT22;8829;47.932;7.810;2023-11-19T13:09:21;14.00;99.90
17423;DHT22;8829;47.932;7.810;2023-11-19T13:11:48;13.90;99.90
17423;DHT22;8829;47.932;7.810;2023-11-19T13:14:15;13.90;99.90
17423;DHT22;8829;47.932;7.810;2023-11-19T13:16:43;13.90;99.90
17423;DHT22;8829;47.932;7.810;2023-11-19T13:19:11;13.90;99.90
17423;DHT22;8829;47.932;7.810;2023-11-19T13:21:37;13.80;99.90
17423;DHT22;8829;47.932;7.810;2023-11-19T13:24:05;13.80;99.90
17423;DHT22;8829;47.932;7.810;2023-11-19T13:26:32;13.80;99.90
17423;DHT22;8829;47.932;7.810;2023-11-19T13:28:59;13.70;99.90
17423;DHT22;8829;47.932;7.810;2023-11-19T13:31:26;13.70;99.90
17423;DHT22;8829;47.932;7.810;2023-11-19T13:33:54;13.60;99.90
17423;DHT22;8829;47.932;7.810;2023-11-19T13:36:20;13.70;99.90
17423;DHT22;8829;47.932;7.810;2023-11-19T13:38:47;13.70;99.90
17423;DHT22;8829;47.932;7.810;2023-11-19T13:41:14;13.60;99.90
17423;DHT22;8829;47.932;7.810;2023-11-19T13:43:40;13.60;99.90
17423;DHT22;8829;47.932;7.810;2023-11-19T13:46:07;13.60;99.90
17423;DHT22;8829;47.932;7.810;2023-11-19T13:48:35;13.60;99.90
17423;DHT22;8829;47.932;7.810;2023-11-19T13:51:04;13.60;99.90
17423;DHT22;8829;47.932;7.810;2023-11-19T13:53:31;13.60;99.90
17423;DHT22;8829;47.932;7.810;2023-11-19T13:55:58;13.60;99.90
17423;DHT22;8829;47.932;7.810;2023-11-19T13:58:24;13.60;99.90
17423;DHT22;8829;47.932;7.810;2023-11-19T14:00:51;13.60;99.90
17423;DHT22;8829;47.932;7.810;2023-11-19T14:03:19;13.70;99.90
17423;DHT22;8829;47.932;7.810;2023-11-19T14:05:46;13.70;99.90
17423;DHT22;8829;47.932;7.810;2023-11-19T14:08:16;13.70;99.90
17423;DHT22;8829;47.932;7.810;2023-11-19T14:10:43;13.60;99.90
17423;DHT22;8829;47.932;7.810;2023-11-19T14:13:09;13.70;99.90
17423;DHT22;8829;47.932;7.810;2023-11-19T14:15:37;13.60;99.90
17423;DHT22;8829;47.932;7.810;2023-11-19T14:18:03;13.60;99.90
17423;DHT22;8829;47.932;7.810;2023-11-19T14:20:30;13.60;99.90
17423;DHT22;8829;47.932;7.810;2023-11-19T14:22:57;13.60;99.90
17423;DHT22;8829;47.932;7.810;2023-11-19T14:25:26;13.60;99.90
17423;DHT22;8829;47.932;7.810;2023-11-19T14:27:52;13.60;99.90
17423;DHT22;8829;47.932;7.810;2023-11-19T14:30:19;13.60;99.90
17423;DHT22;8829;47.932;7.810;2023-11-19T14:32:46;13.50;99.90
17423;DHT22;8829;47.932;7.810;2023-11-19T14:35:14;13.60;99.90
17423;DHT22;8829;47.932;7.810;2023-11-19T14:37:41;13.50;99.90
17423;DHT22;8829;47.932;7.810;2023-11-19T14:40:08;13.60;99.90
17423;DHT22;8829;47.932;7.810;2023-11-19T14:42:38;13.50;99.90
17423;DHT22;8829;47.932;7.810;2023-11-19T14:45:06;13.60;99.90
17423;DHT22;8829;47.932;7.810;2023-11-19T14:47:33;13.50;99.90
17423;DHT22;8829;47.932;7.810;2023-11-19T14:50:00;13.50;99.90
17423;DHT22;8829;47.932;7.810;2023-11-19T14:52:26;13.50;99.90
17423;DHT22;8829;47.932;7.810;2023-11-19T14:54:54;13.50;99.90
17423;DHT22;8829;47.932;7.810;2023-11-19T14:57:22;13.50;99.90
17423;DHT22;8829;47.932;7.810;2023-11-19T14:59:50;13.60;99.90
17423;DHT22;8829;47.932;7.810;2023-11-19T15:02:16;13.60;99.90
17423;DHT22;8829;47.932;7.810;2023-11-19T15:04:44;13.60;99.90
17423;DHT22;8829;47.932;7.810;2023-11-19T15:07:11;13.70;99.90
17423;DHT22;8829;47.932;7.810;2023-11-19T15:09:38;13.70;99.90
17423;DHT22;8829;47.932;7.810;2023-11-19T15:12:05;13.60;99.90
17423;DHT22;8829;47.932;7.810;2023-11-19T15:14:32;13.60;99.90
17423;DHT22;8829;47.932;7.810;2023-11-19T15:17:00;13.50;99.90
17423;DHT22;8829;47.932;7.810;2023-11-19T15:19:27;13.40;99.90
17423;DHT22;8829;47.932;7.810;2023-11-19T15:21:54;13.30;99.90
17423;DHT22;8829;47.932;7.810;2023-11-19T15:24:21;13.20;99.90
17423;DHT22;8829;47.932;7.810;2023-11-19T15:26:48;13.20;99.90
17423;DHT22;8829;47.932;7.810;2023-11-19T15:29:15;13.20;99.90
17423;DHT22;8829;47.932;7.810;2023-11-19T15:31:41;13.10;99.90
17423;DHT22;8829;47.932;7.810;2023-11-19T15:34:09;13.10;99.90
17423;DHT22;8829;47.932;7.810;2023-11-19T15:36:36;13.10;99.90
17423;DHT22;8829;47.932;7.810;2023-11-19T15:39:03;13.10;99.90
17423;DHT22;8829;47.932;7.810;2023-11-19T15:41:30;13.10;99.90
17423;DHT22;8829;47.932;7.810;2023-11-19T15:43:58;13.10;99.90
17423;DHT22;8829;47.932;7.810;2023-11-19T15:46:25;13.00;99.90
17423;DHT22;8829;47.932;7.810;2023-11-19T15:48:51;12.90;99.90
17423;DHT22;8829;47.932;7.810;2023-11-19T15:51:19;12.80;99.90
17423;DHT22;8829;47.932;7.810;2023-11-19T15:53:46;12.80;99.90
17423;DHT22;8829;47.932;7.810;2023-11-19T15:56:13;12.80;99.90